Erdenemandal, Mongolia
Current Conditions -  °F | °C
As of 3:00 AM on Saturday 29 Nov 2014 (Local Time) from ZMUB Reporting Station
Smoke Smoke  
Wind Chill: -10°   Ceiling: Unl
Heat Index:   Visibility: 3mi
Dew Point: -6°   Wind: 4mph
Humidity: 78%   Direction: 160°SSE
Pressure: 29.77"   Gusts: NA
Location:  48.53°N, 101.37°E
Report Text: ZMUB 281900Z 16002MPS 5000NW FU SCT100 M18/M21 Q1008 NOSIG RMK QFE649.8 69 NT
Loading
Personal Weather Stations






























Interactive Weather Map New forecast layout! Learn more

10-Day Weather Forecast

Advertisements
Track Severe Weather on mobile